Fountain Green, UT (84632)

7:00 AM MDT on August 22, 2014 (GMT -0600)
Carbon County | Change Station
CLOSE
Current Station
Airport
Location: Price,
Elevation: 5955 ft
Nearby Weather Stations

Elev 5955 ft 39.61 °N, 110.75 °W | Updated 7 minutes ago

Clear
Clear
57 °F
Feels Like 57 °F
N
7
Wind Variable Wind from NNW

Today
High -- | Low -- °F
--% Chance of Precip.
Yesterday
High -- | Low -- °F
Precip. -- in
6:45 AM 8:12 PM
Waning Crescent, 8% visible
Pressure 29.94 in
Visibility 10.0 miles
Clouds Clear
Dew Point 43 °F
Humidity 59%
Rainfall 0.00 in
Snow Depth 0 in
UV 0 out of 12
Pollen 8.50 out of 12
Air Quality Not available.
Flu Activity Not available.
METAR KPUC 221253Z AUTO 34006KT 10SM CLR 14/06 A3012 RMK AO2 SLP136 T01390061

More Conditions Fewer Conditions

Pressure 29.94 in
Visibility 10.0 miles
Clouds Clear
Dew Point 43 °F
Humidity 59%
Rainfall 0.00 in
Snow Depth 0 in
UV 0 out of 12
Pollen 8.50 out of 12
Air Quality Not available.
Flu Activity Not available.
METAR KPUC 221253Z AUTO 34006KT 10SM CLR 14/06 A3012 RMK AO2 SLP136 T01390061

More Conditions Fewer Conditions

10-Day Weather Forecast

Almanac

Astronomy

Aug. 22, 2014 Rise Set
Actual Time 6:45 AM MDT 8:12 PM MDT
Civil Twilight 6:17 AM MDT 8:40 PM MDT
Nautical Twilight 5:43 AM MDT 9:14 PM MDT
Astronomical Twilight 5:07 AM MDT 9:50 PM MDT
Moon 4:11 AM MDT 6:23 PM MDT
Length of Visible Light 14h 23m
Length of Day
13h 26m
Tomorrow will be 2m 23s shorter.
Waning Crescent, 8% of the Moon is Illuminated
Today
Waning Crescent
Aug 25
New
Sep 2
First Quarter
Sep 8
Full
Sep 15
Last Quarter

Today's Extremes

State Highs State Lows

Community

WunderPhotos

Upload Photos

1,746,160 photos uploaded!

WunderBlogs® & News

Nearby

Snow Depth

Station Depth Elevation
Seeley Creek 0 in 10000 ft
Mammoth-Cottonwood 0 in 8800 ft
Red Pine Ridge 0 in 9200 ft
Payson R.S. 0 in 8050 ft
Buck Flat 0 in 9800 ft

Earthquake Activity

City Distance Mag. Time & Date
No recent earthquake activity has been reported nearby.
Minimum magnitude displayed is 2.5.

Coastal Water Temperatures

Place Temperature
No Stations Reporting

Nearby Weather Stations